sensor_id;sensor_type;location;lat;lon;timestamp;P1;durP1;ratioP1;P2;durP2;ratioP2
21420;SDS011;10871;50.144;8.428;2022-07-23T00:00:15;8.85;;;7.70;;
21420;SDS011;10871;50.144;8.428;2022-07-23T00:02:41;8.38;;;7.57;;
21420;SDS011;10871;50.144;8.428;2022-07-23T00:05:08;10.15;;;8.10;;
21420;SDS011;10871;50.144;8.428;2022-07-23T00:07:34;9.27;;;8.00;;
21420;SDS011;10871;50.144;8.428;2022-07-23T00:10:01;9.20;;;7.30;;
21420;SDS011;10871;50.144;8.428;2022-07-23T00:12:27;9.43;;;7.88;;
21420;SDS011;10871;50.144;8.428;2022-07-23T00:14:53;8.50;;;7.70;;
21420;SDS011;10871;50.144;8.428;2022-07-23T00:17:20;9.73;;;7.82;;
21420;SDS011;10871;50.144;8.428;2022-07-23T00:19:46;8.43;;;7.35;;
21420;SDS011;10871;50.144;8.428;2022-07-23T00:22:12;9.55;;;7.35;;
21420;SDS011;10871;50.144;8.428;2022-07-23T00:24:39;8.30;;;7.38;;
21420;SDS011;10871;50.144;8.428;2022-07-23T00:27:05;10.43;;;8.13;;
21420;SDS011;10871;50.144;8.428;2022-07-23T00:29:32;7.90;;;7.10;;
21420;SDS011;10871;50.144;8.428;2022-07-23T00:31:58;7.97;;;7.28;;
21420;SDS011;10871;50.144;8.428;2022-07-23T00:34:24;11.68;;;7.97;;
21420;SDS011;10871;50.144;8.428;2022-07-23T00:36:51;10.02;;;7.05;;
21420;SDS011;10871;50.144;8.428;2022-07-23T00:39:20;8.43;;;7.50;;
21420;SDS011;10871;50.144;8.428;2022-07-23T00:41:48;9.02;;;7.90;;
21420;SDS011;10871;50.144;8.428;2022-07-23T00:44:19;8.82;;;7.55;;
21420;SDS011;10871;50.144;8.428;2022-07-23T00:46:53;8.98;;;7.07;;
21420;SDS011;10871;50.144;8.428;2022-07-23T00:49:21;10.48;;;7.13;;
21420;SDS011;10871;50.144;8.428;2022-07-23T00:51:48;8.27;;;7.43;;
21420;SDS011;10871;50.144;8.428;2022-07-23T00:54:15;10.82;;;7.53;;
21420;SDS011;10871;50.144;8.428;2022-07-23T00:56:45;7.90;;;6.97;;
21420;SDS011;10871;50.144;8.428;2022-07-23T00:59:12;10.27;;;7.68;;
21420;SDS011;10871;50.144;8.428;2022-07-23T01:01:39;8.55;;;7.57;;
21420;SDS011;10871;50.144;8.428;2022-07-23T01:04:06;8.50;;;7.35;;
21420;SDS011;10871;50.144;8.428;2022-07-23T01:06:34;8.00;;;7.20;;
21420;SDS011;10871;50.144;8.428;2022-07-23T01:09:02;8.65;;;7.10;;
21420;SDS011;10871;50.144;8.428;2022-07-23T01:11:30;7.47;;;6.70;;
21420;SDS011;10871;50.144;8.428;2022-07-23T01:13:57;8.63;;;7.40;;
21420;SDS011;10871;50.144;8.428;2022-07-23T01:16:24;7.65;;;6.93;;
21420;SDS011;10871;50.144;8.428;2022-07-23T01:18:50;8.65;;;7.20;;
21420;SDS011;10871;50.144;8.428;2022-07-23T01:21:17;7.22;;;6.57;;
21420;SDS011;10871;50.144;8.428;2022-07-23T01:23:44;9.05;;;6.97;;
21420;SDS011;10871;50.144;8.428;2022-07-23T01:26:10;8.15;;;7.07;;
21420;SDS011;10871;50.144;8.428;2022-07-23T01:28:37;10.07;;;7.35;;
21420;SDS011;10871;50.144;8.428;2022-07-23T01:31:03;8.65;;;7.00;;
21420;SDS011;10871;50.144;8.428;2022-07-23T01:33:33;10.73;;;7.75;;
21420;SDS011;10871;50.144;8.428;2022-07-23T01:36:00;9.63;;;7.10;;
21420;SDS011;10871;50.144;8.428;2022-07-23T01:38:26;7.90;;;7.10;;
21420;SDS011;10871;50.144;8.428;2022-07-23T01:40:53;8.75;;;7.28;;
21420;SDS011;10871;50.144;8.428;2022-07-23T01:43:25;9.77;;;7.57;;
21420;SDS011;10871;50.144;8.428;2022-07-23T01:45:53;8.73;;;7.40;;
21420;SDS011;10871;50.144;8.428;2022-07-23T01:48:20;8.57;;;7.43;;
21420;SDS011;10871;50.144;8.428;2022-07-23T01:51:07;9.70;;;7.25;;
21420;SDS011;10871;50.144;8.428;2022-07-23T01:53:40;8.43;;;7.28;;
21420;SDS011;10871;50.144;8.428;2022-07-23T01:56:07;8.27;;;6.95;;
21420;SDS011;10871;50.144;8.428;2022-07-23T01:58:34;7.90;;;7.10;;
21420;SDS011;10871;50.144;8.428;2022-07-23T02:01:00;8.07;;;7.07;;
21420;SDS011;10871;50.144;8.428;2022-07-23T02:03:27;8.05;;;6.63;;
21420;SDS011;10871;50.144;8.428;2022-07-23T02:05:53;9.77;;;7.40;;
21420;SDS011;10871;50.144;8.428;2022-07-23T02:08:20;8.23;;;7.43;;
21420;SDS011;10871;50.144;8.428;2022-07-23T02:10:47;9.55;;;7.88;;
21420;SDS011;10871;50.144;8.428;2022-07-23T02:13:14;9.35;;;7.10;;
21420;SDS011;10871;50.144;8.428;2022-07-23T02:15:45;8.10;;;7.30;;
21420;SDS011;10871;50.144;8.428;2022-07-23T02:18:12;9.25;;;7.20;;
21420;SDS011;10871;50.144;8.428;2022-07-23T02:20:38;7.93;;;7.13;;
21420;SDS011;10871;50.144;8.428;2022-07-23T02:23:06;8.88;;;7.68;;
21420;SDS011;10871;50.144;8.428;2022-07-23T02:25:33;11.27;;;8.30;;
21420;SDS011;10871;50.144;8.428;2022-07-23T02:28:00;10.20;;;8.30;;
21420;SDS011;10871;50.144;8.428;2022-07-23T02:30:27;9.23;;;7.57;;
21420;SDS011;10871;50.144;8.428;2022-07-23T02:32:53;8.15;;;7.35;;
21420;SDS011;10871;50.144;8.428;2022-07-23T02:35:20;11.73;;;8.27;;
21420;SDS011;10871;50.144;8.428;2022-07-23T02:37:46;9.27;;;8.35;;
21420;SDS011;10871;50.144;8.428;2022-07-23T02:40:14;9.38;;;8.25;;
21420;SDS011;10871;50.144;8.428;2022-07-23T02:42:42;11.48;;;8.18;;
21420;SDS011;10871;50.144;8.428;2022-07-23T02:45:09;10.20;;;8.23;;
21420;SDS011;10871;50.144;8.428;2022-07-23T02:47:35;10.65;;;7.85;;
21420;SDS011;10871;50.144;8.428;2022-07-23T02:50:02;9.77;;;8.30;;
21420;SDS011;10871;50.144;8.428;2022-07-23T02:52:31;9.65;;;8.50;;
21420;SDS011;10871;50.144;8.428;2022-07-23T02:54:57;9.70;;;8.15;;
21420;SDS011;10871;50.144;8.428;2022-07-23T02:57:24;9.77;;;8.77;;
21420;SDS011;10871;50.144;8.428;2022-07-23T02:59:50;11.20;;;8.90;;
21420;SDS011;10871;50.144;8.428;2022-07-23T03:02:17;11.07;;;8.85;;
21420;SDS011;10871;50.144;8.428;2022-07-23T03:04:43;16.67;;;9.52;;
21420;SDS011;10871;50.144;8.428;2022-07-23T03:07:10;11.90;;;9.73;;
21420;SDS011;10871;50.144;8.428;2022-07-23T03:09:37;10.18;;;9.18;;
21420;SDS011;10871;50.144;8.428;2022-07-23T03:12:03;12.35;;;9.73;;
21420;SDS011;10871;50.144;8.428;2022-07-23T03:14:35;11.73;;;9.15;;
21420;SDS011;10871;50.144;8.428;2022-07-23T03:17:02;13.10;;;9.10;;
21420;SDS011;10871;50.144;8.428;2022-07-23T03:19:29;10.77;;;9.60;;
21420;SDS011;10871;50.144;8.428;2022-07-23T03:21:55;11.10;;;9.48;;
21420;SDS011;10871;50.144;8.428;2022-07-23T03:24:22;9.98;;;8.95;;
21420;SDS011;10871;50.144;8.428;2022-07-23T03:26:49;12.70;;;9.80;;
21420;SDS011;10871;50.144;8.428;2022-07-23T03:29:16;10.23;;;8.98;;
21420;SDS011;10871;50.144;8.428;2022-07-23T03:31:43;10.50;;;9.40;;
21420;SDS011;10871;50.144;8.428;2022-07-23T03:34:10;11.10;;;8.98;;
21420;SDS011;10871;50.144;8.428;2022-07-23T03:36:36;10.80;;;9.70;;
21420;SDS011;10871;50.144;8.428;2022-07-23T03:39:04;10.65;;;9.00;;
21420;SDS011;10871;50.144;8.428;2022-07-23T03:41:31;10.80;;;8.90;;
21420;SDS011;10871;50.144;8.428;2022-07-23T03:43:58;10.30;;;8.88;;
21420;SDS011;10871;50.144;8.428;2022-07-23T03:46:25;9.23;;;8.32;;
21420;SDS011;10871;50.144;8.428;2022-07-23T03:48:51;9.55;;;8.40;;
21420;SDS011;10871;50.144;8.428;2022-07-23T03:51:24;9.52;;;8.52;;
21420;SDS011;10871;50.144;8.428;2022-07-23T03:53:50;10.32;;;9.27;;
21420;SDS011;10871;50.144;8.428;2022-07-23T03:56:17;9.07;;;8.18;;
21420;SDS011;10871;50.144;8.428;2022-07-23T03:58:43;11.48;;;9.32;;
21420;SDS011;10871;50.144;8.428;2022-07-23T04:01:10;10.38;;;8.13;;
21420;SDS011;10871;50.144;8.428;2022-07-23T04:03:36;10.00;;;8.70;;
21420;SDS011;10871;50.144;8.428;2022-07-23T04:06:03;10.82;;;8.65;;
21420;SDS011;10871;50.144;8.428;2022-07-23T04:08:30;12.02;;;8.48;;
21420;SDS011;10871;50.144;8.428;2022-07-23T04:10:58;10.07;;;9.07;;
21420;SDS011;10871;50.144;8.428;2022-07-23T04:13:25;13.10;;;9.07;;
21420;SDS011;10871;50.144;8.428;2022-07-23T04:15:51;11.65;;;9.63;;
21420;SDS011;10871;50.144;8.428;2022-07-23T04:18:18;11.27;;;9.30;;
21420;SDS011;10871;50.144;8.428;2022-07-23T04:20:53;10.60;;;9.30;;
21420;SDS011;10871;50.144;8.428;2022-07-23T04:23:19;11.68;;;9.48;;
21420;SDS011;10871;50.144;8.428;2022-07-23T04:25:46;11.13;;;9.52;;
21420;SDS011;10871;50.144;8.428;2022-07-23T04:28:12;10.48;;;9.40;;
21420;SDS011;10871;50.144;8.428;2022-07-23T04:30:40;11.40;;;8.68;;
21420;SDS011;10871;50.144;8.428;2022-07-23T04:33:08;11.88;;;9.85;;
21420;SDS011;10871;50.144;8.428;2022-07-23T04:35:37;10.68;;;9.55;;
21420;SDS011;10871;50.144;8.428;2022-07-23T04:40:50;9.90;;;8.80;;
21420;SDS011;10871;50.144;8.428;2022-07-23T04:43:16;11.50;;;8.13;;
21420;SDS011;10871;50.144;8.428;2022-07-23T04:45:47;11.15;;;8.73;;
21420;SDS011;10871;50.144;8.428;2022-07-23T04:48:13;9.77;;;8.77;;
21420;SDS011;10871;50.144;8.428;2022-07-23T04:50:40;9.73;;;8.60;;
21420;SDS011;10871;50.144;8.428;2022-07-23T04:53:15;10.48;;;8.32;;
21420;SDS011;10871;50.144;8.428;2022-07-23T04:55:42;8.98;;;8.07;;
21420;SDS011;10871;50.144;8.428;2022-07-23T04:58:09;9.73;;;8.73;;
21420;SDS011;10871;50.144;8.428;2022-07-23T05:00:35;9.77;;;8.48;;
21420;SDS011;10871;50.144;8.428;2022-07-23T05:03:02;9.48;;;8.45;;
21420;SDS011;10871;50.144;8.428;2022-07-23T05:05:28;10.25;;;8.10;;
21420;SDS011;10871;50.144;8.428;2022-07-23T05:08:02;8.55;;;7.65;;
21420;SDS011;10871;50.144;8.428;2022-07-23T05:10:28;9.75;;;8.82;;
21420;SDS011;10871;50.144;8.428;2022-07-23T05:12:54;8.70;;;7.80;;
21420;SDS011;10871;50.144;8.428;2022-07-23T05:15:21;10.23;;;8.38;;
21420;SDS011;10871;50.144;8.428;2022-07-23T05:17:47;9.23;;;8.30;;
21420;SDS011;10871;50.144;8.428;2022-07-23T05:20:16;9.63;;;8.35;;
21420;SDS011;10871;50.144;8.428;2022-07-23T05:22:42;9.60;;;8.38;;
21420;SDS011;10871;50.144;8.428;2022-07-23T05:25:09;9.05;;;8.15;;
21420;SDS011;10871;50.144;8.428;2022-07-23T05:27:35;9.05;;;8.15;;
21420;SDS011;10871;50.144;8.428;2022-07-23T05:30:02;9.35;;;7.72;;
21420;SDS011;10871;50.144;8.428;2022-07-23T05:32:32;10.13;;;8.68;;
21420;SDS011;10871;50.144;8.428;2022-07-23T05:35:09;9.38;;;8.38;;
21420;SDS011;10871;50.144;8.428;2022-07-23T05:37:38;9.38;;;8.35;;
21420;SDS011;10871;50.144;8.428;2022-07-23T05:40:06;10.10;;;8.18;;
21420;SDS011;10871;50.144;8.428;2022-07-23T05:42:34;8.95;;;8.05;;
21420;SDS011;10871;50.144;8.428;2022-07-23T05:45:00;8.68;;;7.78;;
21420;SDS011;10871;50.144;8.428;2022-07-23T05:47:27;8.93;;;8.02;;
21420;SDS011;10871;50.144;8.428;2022-07-23T05:49:53;9.55;;;8.63;;
21420;SDS011;10871;50.144;8.428;2022-07-23T05:52:33;10.60;;;8.25;;
21420;SDS011;10871;50.144;8.428;2022-07-23T05:55:18;14.40;;;8.75;;
21420;SDS011;10871;50.144;8.428;2022-07-23T05:57:45;9.23;;;8.32;;
21420;SDS011;10871;50.144;8.428;2022-07-23T06:00:11;9.38;;;8.07;;
21420;SDS011;10871;50.144;8.428;2022-07-23T06:02:42;9.80;;;7.82;;
21420;SDS011;10871;50.144;8.428;2022-07-23T06:05:11;9.02;;;7.80;;
21420;SDS011;10871;50.144;8.428;2022-07-23T06:07:39;8.93;;;7.97;;
21420;SDS011;10871;50.144;8.428;2022-07-23T06:10:06;9.82;;;8.38;;
21420;SDS011;10871;50.144;8.428;2022-07-23T06:12:32;10.18;;;7.93;;
21420;SDS011;10871;50.144;8.428;2022-07-23T06:15:00;9.05;;;7.57;;
21420;SDS011;10871;50.144;8.428;2022-07-23T06:17:26;8.70;;;7.80;;
21420;SDS011;10871;50.144;8.428;2022-07-23T06:19:53;8.65;;;7.70;;
21420;SDS011;10871;50.144;8.428;2022-07-23T06:22:19;9.27;;;7.93;;
21420;SDS011;10871;50.144;8.428;2022-07-23T06:24:46;7.90;;;7.13;;
21420;SDS011;10871;50.144;8.428;2022-07-23T06:27:13;8.77;;;7.97;;
21420;SDS011;10871;50.144;8.428;2022-07-23T06:29:39;8.95;;;8.05;;
21420;SDS011;10871;50.144;8.428;2022-07-23T06:32:07;10.00;;;8.20;;
21420;SDS011;10871;50.144;8.428;2022-07-23T06:34:34;9.77;;;8.15;;
21420;SDS011;10871;50.144;8.428;2022-07-23T06:37:00;9.85;;;7.97;;
21420;SDS011;10871;50.144;8.428;2022-07-23T06:39:27;9.07;;;8.05;;
21420;SDS011;10871;50.144;8.428;2022-07-23T06:41:56;10.13;;;8.20;;
21420;SDS011;10871;50.144;8.428;2022-07-23T06:44:36;10.90;;;7.68;;
21420;SDS011;10871;50.144;8.428;2022-07-23T06:47:04;9.68;;;7.65;;
21420;SDS011;10871;50.144;8.428;2022-07-23T06:49:30;10.25;;;7.63;;
21420;SDS011;10871;50.144;8.428;2022-07-23T06:51:57;8.77;;;7.88;;
21420;SDS011;10871;50.144;8.428;2022-07-23T06:54:23;8.38;;;7.57;;
21420;SDS011;10871;50.144;8.428;2022-07-23T06:56:50;8.05;;;7.35;;
21420;SDS011;10871;50.144;8.428;2022-07-23T06:59:16;9.45;;;7.85;;
21420;SDS011;10871;50.144;8.428;2022-07-23T07:01:42;7.70;;;6.90;;
21420;SDS011;10871;50.144;8.428;2022-07-23T07:04:09;8.80;;;7.60;;
21420;SDS011;10871;50.144;8.428;2022-07-23T07:06:35;9.88;;;7.55;;
21420;SDS011;10871;50.144;8.428;2022-07-23T07:09:02;8.27;;;7.43;;
21420;SDS011;10871;50.144;8.428;2022-07-23T07:11:28;8.80;;;7.30;;
21420;SDS011;10871;50.144;8.428;2022-07-23T07:13:56;7.90;;;7.10;;
21420;SDS011;10871;50.144;8.428;2022-07-23T07:16:22;7.90;;;7.20;;
21420;SDS011;10871;50.144;8.428;2022-07-23T07:18:53;8.05;;;7.35;;
21420;SDS011;10871;50.144;8.428;2022-07-23T07:21:19;9.30;;;7.63;;
21420;SDS011;10871;50.144;8.428;2022-07-23T07:23:46;8.60;;;7.10;;
21420;SDS011;10871;50.144;8.428;2022-07-23T07:26:12;8.10;;;7.28;;
21420;SDS011;10871;50.144;8.428;2022-07-23T07:28:39;8.85;;;7.10;;
21420;SDS011;10871;50.144;8.428;2022-07-23T07:31:05;7.68;;;6.80;;
21420;SDS011;10871;50.144;8.428;2022-07-23T07:33:31;8.00;;;7.15;;
21420;SDS011;10871;50.144;8.428;2022-07-23T07:35:58;7.93;;;6.85;;
21420;SDS011;10871;50.144;8.428;2022-07-23T07:38:24;7.32;;;6.53;;
21420;SDS011;10871;50.144;8.428;2022-07-23T07:40:51;6.70;;;6.03;;
21420;SDS011;10871;50.144;8.428;2022-07-23T07:43:17;6.57;;;6.07;;
21420;SDS011;10871;50.144;8.428;2022-07-23T07:45:43;8.30;;;5.88;;
21420;SDS011;10871;50.144;8.428;2022-07-23T07:48:10;6.93;;;6.32;;
21420;SDS011;10871;50.144;8.428;2022-07-23T07:50:36;7.18;;;6.57;;
21420;SDS011;10871;50.144;8.428;2022-07-23T07:53:03;6.90;;;6.28;;
21420;SDS011;10871;50.144;8.428;2022-07-23T07:55:29;7.07;;;6.38;;
21420;SDS011;10871;50.144;8.428;2022-07-23T07:57:55;6.45;;;5.85;;
21420;SDS011;10871;50.144;8.428;2022-07-23T08:00:22;7.47;;;6.20;;
21420;SDS011;10871;50.144;8.428;2022-07-23T08:02:50;6.45;;;5.85;;
21420;SDS011;10871;50.144;8.428;2022-07-23T08:05:25;5.97;;;5.47;;
21420;SDS011;10871;50.144;8.428;2022-07-23T08:07:54;7.68;;;6.20;;
21420;SDS011;10871;50.144;8.428;2022-07-23T08:10:20;6.78;;;6.10;;
21420;SDS011;10871;50.144;8.428;2022-07-23T08:12:48;5.80;;;5.30;;
21420;SDS011;10871;50.144;8.428;2022-07-23T08:15:16;5.78;;;5.10;;
21420;SDS011;10871;50.144;8.428;2022-07-23T08:17:43;6.20;;;5.25;;
21420;SDS011;10871;50.144;8.428;2022-07-23T08:20:10;5.95;;;5.30;;
21420;SDS011;10871;50.144;8.428;2022-07-23T08:25:13;6.72;;;5.20;;
21420;SDS011;10871;50.144;8.428;2022-07-23T08:27:39;5.90;;;5.38;;
21420;SDS011;10871;50.144;8.428;2022-07-23T08:30:06;7.57;;;5.22;;
21420;SDS011;10871;50.144;8.428;2022-07-23T08:32:32;6.05;;;5.40;;
21420;SDS011;10871;50.144;8.428;2022-07-23T08:35:10;5.63;;;5.00;;
21420;SDS011;10871;50.144;8.428;2022-07-23T08:37:37;6.13;;;4.95;;
21420;SDS011;10871;50.144;8.428;2022-07-23T08:40:03;6.18;;;5.32;;
21420;SDS011;10871;50.144;8.428;2022-07-23T08:42:30;6.30;;;5.32;;
21420;SDS011;10871;50.144;8.428;2022-07-23T08:44:57;6.50;;;5.90;;
21420;SDS011;10871;50.144;8.428;2022-07-23T08:47:23;5.85;;;5.35;;
21420;SDS011;10871;50.144;8.428;2022-07-23T08:49:52;5.57;;;5.07;;
21420;SDS011;10871;50.144;8.428;2022-07-23T08:52:19;5.70;;;5.20;;
21420;SDS011;10871;50.144;8.428;2022-07-23T08:54:52;6.50;;;5.90;;
21420;SDS011;10871;50.144;8.428;2022-07-23T08:57:19;6.10;;;5.10;;
21420;SDS011;10871;50.144;8.428;2022-07-23T08:59:45;5.03;;;4.50;;
21420;SDS011;10871;50.144;8.428;2022-07-23T09:02:12;5.57;;;5.05;;
21420;SDS011;10871;50.144;8.428;2022-07-23T09:04:38;5.05;;;4.55;;
21420;SDS011;10871;50.144;8.428;2022-07-23T09:07:05;4.68;;;4.28;;
21420;SDS011;10871;50.144;8.428;2022-07-23T09:09:31;4.72;;;4.32;;
21420;SDS011;10871;50.144;8.428;2022-07-23T09:12:03;5.72;;;4.15;;
21420;SDS011;10871;50.144;8.428;2022-07-23T09:14:40;4.72;;;4.30;;
21420;SDS011;10871;50.144;8.428;2022-07-23T09:17:14;4.00;;;3.70;;
21420;SDS011;10871;50.144;8.428;2022-07-23T09:19:41;4.40;;;4.00;;
21420;SDS011;10871;50.144;8.428;2022-07-23T09:22:24;5.53;;;4.18;;
21420;SDS011;10871;50.144;8.428;2022-07-23T09:27:47;4.32;;;4.00;;
21420;SDS011;10871;50.144;8.428;2022-07-23T09:30:20;4.93;;;4.43;;
21420;SDS011;10871;50.144;8.428;2022-07-23T09:33:03;4.75;;;4.35;;
21420;SDS011;10871;50.144;8.428;2022-07-23T09:38:12;4.90;;;4.40;;
21420;SDS011;10871;50.144;8.428;2022-07-23T09:40:40;5.10;;;4.60;;
21420;SDS011;10871;50.144;8.428;2022-07-23T09:43:06;5.65;;;4.38;;
21420;SDS011;10871;50.144;8.428;2022-07-23T09:45:33;5.30;;;4.80;;
21420;SDS011;10871;50.144;8.428;2022-07-23T09:48:16;5.43;;;4.60;;
21420;SDS011;10871;50.144;8.428;2022-07-23T09:50:43;5.15;;;4.63;;
21420;SDS011;10871;50.144;8.428;2022-07-23T09:53:23;5.35;;;4.85;;
21420;SDS011;10871;50.144;8.428;2022-07-23T09:55:50;5.43;;;4.47;;
21420;SDS011;10871;50.144;8.428;2022-07-23T09:58:19;5.30;;;4.80;;
21420;SDS011;10871;50.144;8.428;2022-07-23T10:00:48;5.20;;;4.70;;
21420;SDS011;10871;50.144;8.428;2022-07-23T10:03:15;5.55;;;4.43;;
21420;SDS011;10871;50.144;8.428;2022-07-23T10:06:00;6.20;;;4.78;;
21420;SDS011;10871;50.144;8.428;2022-07-23T10:08:27;6.18;;;4.63;;
21420;SDS011;10871;50.144;8.428;2022-07-23T10:10:57;5.25;;;4.60;;
21420;SDS011;10871;50.144;8.428;2022-07-23T10:13:47;7.03;;;4.88;;
21420;SDS011;10871;50.144;8.428;2022-07-23T10:16:23;6.18;;;4.60;;
21420;SDS011;10871;50.144;8.428;2022-07-23T10:18:52;5.53;;;4.82;;
21420;SDS011;10871;50.144;8.428;2022-07-23T10:24:12;6.65;;;4.88;;
21420;SDS011;10871;50.144;8.428;2022-07-23T10:26:52;5.00;;;4.55;;
21420;SDS011;10871;50.144;8.428;2022-07-23T10:30:06;6.43;;;5.20;;
21420;SDS011;10871;50.144;8.428;2022-07-23T10:32:17;6.60;;;4.85;;
21420;SDS011;10871;50.144;8.428;2022-07-23T10:37:39;5.93;;;5.32;;
21420;SDS011;10871;50.144;8.428;2022-07-23T10:40:14;5.55;;;4.90;;
21420;SDS011;10871;50.144;8.428;2022-07-23T10:42:40;4.90;;;4.40;;
21420;SDS011;10871;50.144;8.428;2022-07-23T10:47:54;4.95;;;4.50;;
21420;SDS011;10871;50.144;8.428;2022-07-23T10:50:30;5.50;;;5.00;;
21420;SDS011;10871;50.144;8.428;2022-07-23T10:58:01;6.32;;;4.38;;
21420;SDS011;10871;50.144;8.428;2022-07-23T11:00:29;5.38;;;4.88;;
21420;SDS011;10871;50.144;8.428;2022-07-23T11:02:57;5.57;;;4.80;;
21420;SDS011;10871;50.144;8.428;2022-07-23T11:05:25;6.15;;;5.03;;
21420;SDS011;10871;50.144;8.428;2022-07-23T11:10:32;6.70;;;5.13;;
21420;SDS011;10871;50.144;8.428;2022-07-23T11:34:29;7.85;;;5.43;;
21420;SDS011;10871;50.144;8.428;2022-07-23T11:36:55;6.53;;;5.55;;
21420;SDS011;10871;50.144;8.428;2022-07-23T11:39:22;6.60;;;6.00;;
21420;SDS011;10871;50.144;8.428;2022-07-23T11:41:51;6.55;;;5.95;;
21420;SDS011;10871;50.144;8.428;2022-07-23T11:44:27;6.15;;;5.55;;
21420;SDS011;10871;50.144;8.428;2022-07-23T11:47:04;6.35;;;5.75;;
21420;SDS011;10871;50.144;8.428;2022-07-23T11:49:31;7.20;;;5.38;;
21420;SDS011;10871;50.144;8.428;2022-07-23T11:54:31;6.38;;;5.72;;
21420;SDS011;10871;50.144;8.428;2022-07-23T11:57:03;6.05;;;5.45;;
21420;SDS011;10871;50.144;8.428;2022-07-23T11:59:31;6.30;;;5.65;;
21420;SDS011;10871;50.144;8.428;2022-07-23T12:04:25;7.03;;;5.40;;
21420;SDS011;10871;50.144;8.428;2022-07-23T12:07:02;8.35;;;6.13;;
21420;SDS011;10871;50.144;8.428;2022-07-23T12:09:29;6.65;;;5.93;;
21420;SDS011;10871;50.144;8.428;2022-07-23T12:11:59;7.30;;;6.07;;
21420;SDS011;10871;50.144;8.428;2022-07-23T12:14:26;6.68;;;5.95;;
21420;SDS011;10871;50.144;8.428;2022-07-23T12:17:08;6.13;;;5.53;;
21420;SDS011;10871;50.144;8.428;2022-07-23T12:19:35;5.90;;;5.40;;
21420;SDS011;10871;50.144;8.428;2022-07-23T12:22:01;6.43;;;5.93;;
21420;SDS011;10871;50.144;8.428;2022-07-23T12:24:29;7.95;;;5.88;;
21420;SDS011;10871;50.144;8.428;2022-07-23T12:27:12;6.30;;;5.70;;
21420;SDS011;10871;50.144;8.428;2022-07-23T12:29:39;6.68;;;5.70;;
21420;SDS011;10871;50.144;8.428;2022-07-23T12:32:18;6.75;;;5.80;;
21420;SDS011;10871;50.144;8.428;2022-07-23T12:34:46;6.25;;;5.75;;
21420;SDS011;10871;50.144;8.428;2022-07-23T12:37:35;6.82;;;6.22;;
21420;SDS011;10871;50.144;8.428;2022-07-23T12:40:49;6.07;;;5.47;;
21420;SDS011;10871;50.144;8.428;2022-07-23T12:42:50;6.63;;;6.03;;
21420;SDS011;10871;50.144;8.428;2022-07-23T12:45:16;5.95;;;5.43;;
21420;SDS011;10871;50.144;8.428;2022-07-23T12:47:50;6.55;;;5.90;;
21420;SDS011;10871;50.144;8.428;2022-07-23T12:53:08;7.97;;;6.47;;
21420;SDS011;10871;50.144;8.428;2022-07-23T12:55:43;7.55;;;5.93;;
21420;SDS011;10871;50.144;8.428;2022-07-23T12:58:47;6.50;;;5.82;;
21420;SDS011;10871;50.144;8.428;2022-07-23T13:06:31;7.28;;;5.80;;
21420;SDS011;10871;50.144;8.428;2022-07-23T13:08:58;6.72;;;6.00;;
21420;SDS011;10871;50.144;8.428;2022-07-23T13:11:26;7.63;;;6.03;;
21420;SDS011;10871;50.144;8.428;2022-07-23T13:13:53;7.85;;;6.53;;
21420;SDS011;10871;50.144;8.428;2022-07-23T13:16:19;7.68;;;6.70;;
21420;SDS011;10871;50.144;8.428;2022-07-23T13:18:46;7.60;;;6.32;;
21420;SDS011;10871;50.144;8.428;2022-07-23T13:21:14;6.60;;;6.00;;
21420;SDS011;10871;50.144;8.428;2022-07-23T13:23:43;7.35;;;6.03;;
21420;SDS011;10871;50.144;8.428;2022-07-23T13:26:09;6.88;;;6.18;;
21420;SDS011;10871;50.144;8.428;2022-07-23T13:28:36;7.03;;;6.10;;
21420;SDS011;10871;50.144;8.428;2022-07-23T13:31:02;7.22;;;6.00;;
21420;SDS011;10871;50.144;8.428;2022-07-23T13:33:29;7.00;;;5.88;;
21420;SDS011;10871;50.144;8.428;2022-07-23T13:35:56;6.72;;;6.13;;
21420;SDS011;10871;50.144;8.428;2022-07-23T13:38:22;6.78;;;6.18;;
21420;SDS011;10871;50.144;8.428;2022-07-23T13:40:49;6.38;;;5.78;;
21420;SDS011;10871;50.144;8.428;2022-07-23T13:43:17;8.55;;;5.95;;
21420;SDS011;10871;50.144;8.428;2022-07-23T13:45:48;6.30;;;5.70;;
21420;SDS011;10871;50.144;8.428;2022-07-23T13:48:15;6.60;;;5.60;;
21420;SDS011;10871;50.144;8.428;2022-07-23T13:50:41;7.13;;;6.43;;
21420;SDS011;10871;50.144;8.428;2022-07-23T13:53:09;6.45;;;5.78;;
21420;SDS011;10871;50.144;8.428;2022-07-23T13:55:36;7.65;;;5.80;;
21420;SDS011;10871;50.144;8.428;2022-07-23T13:58:04;6.28;;;5.68;;
21420;SDS011;10871;50.144;8.428;2022-07-23T14:00:31;6.68;;;6.07;;
21420;SDS011;10871;50.144;8.428;2022-07-23T14:03:18;6.43;;;5.82;;
21420;SDS011;10871;50.144;8.428;2022-07-23T14:05:47;5.88;;;5.38;;
21420;SDS011;10871;50.144;8.428;2022-07-23T14:08:14;8.10;;;5.93;;
21420;SDS011;10871;50.144;8.428;2022-07-23T14:10:40;6.32;;;5.72;;
21420;SDS011;10871;50.144;8.428;2022-07-23T14:13:08;6.18;;;5.68;;
21420;SDS011;10871;50.144;8.428;2022-07-23T14:15:35;7.43;;;5.90;;
21420;SDS011;10871;50.144;8.428;2022-07-23T14:18:03;7.13;;;5.53;;
21420;SDS011;10871;50.144;8.428;2022-07-23T14:20:30;7.50;;;5.88;;
21420;SDS011;10871;50.144;8.428;2022-07-23T14:22:56;6.47;;;5.78;;
21420;SDS011;10871;50.144;8.428;2022-07-23T14:25:29;6.60;;;5.97;;
21420;SDS011;10871;50.144;8.428;2022-07-23T14:27:56;6.03;;;5.43;;
21420;SDS011;10871;50.144;8.428;2022-07-23T14:30:22;5.97;;;5.40;;
21420;SDS011;10871;50.144;8.428;2022-07-23T14:32:54;6.13;;;5.53;;
21420;SDS011;10871;50.144;8.428;2022-07-23T14:35:20;5.70;;;5.00;;
21420;SDS011;10871;50.144;8.428;2022-07-23T14:37:48;5.82;;;5.22;;
21420;SDS011;10871;50.144;8.428;2022-07-23T14:40:14;6.20;;;4.93;;
21420;SDS011;10871;50.144;8.428;2022-07-23T14:42:41;6.28;;;5.18;;
21420;SDS011;10871;50.144;8.428;2022-07-23T14:45:08;5.75;;;5.22;;
21420;SDS011;10871;50.144;8.428;2022-07-23T14:47:36;5.90;;;4.97;;
21420;SDS011;10871;50.144;8.428;2022-07-23T14:50:05;5.28;;;4.78;;
21420;SDS011;10871;50.144;8.428;2022-07-23T14:52:31;5.50;;;4.78;;
21420;SDS011;10871;50.144;8.428;2022-07-23T14:54:58;5.30;;;4.80;;
21420;SDS011;10871;50.144;8.428;2022-07-23T14:57:24;6.07;;;4.95;;
21420;SDS011;10871;50.144;8.428;2022-07-23T15:00:11;5.45;;;4.95;;
21420;SDS011;10871;50.144;8.428;2022-07-23T15:02:37;6.57;;;4.57;;
21420;SDS011;10871;50.144;8.428;2022-07-23T15:05:04;7.05;;;5.10;;
21420;SDS011;10871;50.144;8.428;2022-07-23T15:19:13;5.95;;;4.88;;
21420;SDS011;10871;50.144;8.428;2022-07-23T15:21:39;5.75;;;4.55;;
21420;SDS011;10871;50.144;8.428;2022-07-23T15:24:14;6.20;;;5.00;;
21420;SDS011;10871;50.144;8.428;2022-07-23T15:26:40;5.72;;;4.47;;
21420;SDS011;10871;50.144;8.428;2022-07-23T15:29:07;5.72;;;4.97;;
21420;SDS011;10871;50.144;8.428;2022-07-23T15:31:34;5.93;;;4.97;;
21420;SDS011;10871;50.144;8.428;2022-07-23T15:34:01;4.72;;;4.22;;
21420;SDS011;10871;50.144;8.428;2022-07-23T15:36:28;6.60;;;4.60;;
21420;SDS011;10871;50.144;8.428;2022-07-23T15:38:55;7.18;;;4.97;;
21420;SDS011;10871;50.144;8.428;2022-07-23T15:41:21;5.05;;;4.38;;
21420;SDS011;10871;50.144;8.428;2022-07-23T15:43:49;5.13;;;4.63;;
21420;SDS011;10871;50.144;8.428;2022-07-23T15:46:16;5.40;;;4.90;;
21420;SDS011;10871;50.144;8.428;2022-07-23T15:48:50;7.45;;;5.75;;
21420;SDS011;10871;50.144;8.428;2022-07-23T15:51:17;6.65;;;5.00;;
21420;SDS011;10871;50.144;8.428;2022-07-23T15:53:44;6.90;;;5.05;;
21420;SDS011;10871;50.144;8.428;2022-07-23T15:56:10;4.82;;;4.38;;
21420;SDS011;10871;50.144;8.428;2022-07-23T15:58:42;5.75;;;4.20;;
21420;SDS011;10871;50.144;8.428;2022-07-23T16:01:09;5.00;;;4.50;;
21420;SDS011;10871;50.144;8.428;2022-07-23T16:03:36;6.07;;;4.32;;
21420;SDS011;10871;50.144;8.428;2022-07-23T16:06:04;5.60;;;4.40;;